Weather reports worldwide

Advertisment
Great Dun Fell, United Kingdom (3227): temperature & dewpoint: 14.10.2017 22:00:00 - 20.10.2017 22:00:00 (BST)Great Dun Fell, United Kingdom (3227): wind speed & gusts: 14.10.2017 22:00:00 - 20.10.2017 22:00:00 (BST)Great Dun Fell, United Kingdom (3227): wind direction: 14.10.2017 22:00:00 - 20.10.2017 22:00:00 (BST)
Date & Time tt [°C] td [°C] ff [km/h] ff [kn] fx [km/h] fx [kn] dd
20.10.2017 22:00:00 5,0 4,5 44 24 63 34 S
20.10.2017 21:00:00 4,5 4,5 44 24 57 31 SSW
20.10.2017 20:00:00 5,2 5,2 44 24 59 32 SSW
20.10.2017 19:00:00 5,1 5,1 55 30 63 34 SW
20.10.2017 18:00:00 5,8 5,8 48 26 55 30 SW
20.10.2017 17:00:00 6,5 6,5 37 20 52 28 SW
20.10.2017 16:00:00 8,4 8,4 31 17 - - SW
20.10.2017 15:00:00 8,3 8,0 18 10 - - WSW
20.10.2017 14:00:00 8,0 8,0 22 12 - - WSW
20.10.2017 13:00:00 8,2 8,0 18 10 - - W
20.10.2017 12:00:00 7,7 7,7 22 12 - - NW
20.10.2017 11:00:00 7,9 7,9 26 14 - - WNW
20.10.2017 10:00:00 8,2 8,2 22 12 - - NW
20.10.2017 09:00:00 8,1 8,1 18 10 - - W
20.10.2017 08:00:00 7,9 7,9 11 6 - - WNW
20.10.2017 07:00:00 8,0 8,0 11 6 - - WSW
20.10.2017 06:00:00 7,7 7,7 8 4 - - WNW
20.10.2017 05:00:00 7,8 7,8 5 3 - - W
20.10.2017 04:00:00 8,1 8,1 26 14 - - SW
20.10.2017 03:00:00 8,5 8,5 37 20 54 29 SSW
20.10.2017 02:00:00 8,6 8,6 44 24 65 35 S
20.10.2017 01:00:00 8,3 8,3 44 24 61 33 S
20.10.2017 00:00:00 7,8 7,8 48 26 61 33 S
19.10.2017 23:00:00 7,6 7,6 39 21 54 29 S
19.10.2017 22:00:00 8,4 8,4 37 20 46 25 SSW
19.10.2017 21:00:00 9,0 9,0 35 19 - - S
19.10.2017 20:00:00 8,9 8,9 29 16 - - SSE
19.10.2017 19:00:00 8,1 8,1 34 18 - - ESE
19.10.2017 18:00:00 7,8 7,8 26 14 - - ESE
19.10.2017 17:00:00 8,4 8,4 29 16 - - SE
19.10.2017 16:00:00 8,2 8,2 39 21 50 27 SE
19.10.2017 15:00:00 7,7 7,7 41 22 52 28 SE
19.10.2017 14:00:00 8,0 8,0 31 17 - - SE
19.10.2017 13:00:00 8,0 8,0 28 15 - - SSE
19.10.2017 12:00:00 7,4 7,4 31 17 - - S
19.10.2017 11:00:00 7,2 7,2 31 17 - - S
19.10.2017 10:00:00 7,1 7,1 34 18 - - S
19.10.2017 09:00:00 7,1 7,1 29 16 - - SSW
19.10.2017 08:00:00 7,0 7,0 29 16 - - SSW
19.10.2017 07:00:00 6,9 6,9 35 19 - - SSW
19.10.2017 06:00:00 7,0 7,0 29 16 - - SSW
19.10.2017 05:00:00 7,0 7,0 28 15 - - SSW
19.10.2017 04:00:00 7,2 7,2 29 16 - - SSW
19.10.2017 03:00:00 7,1 7,1 24 13 - - S
19.10.2017 02:00:00 6,5 6,5 28 15 - - SSE
19.10.2017 01:00:00 6,2 6,2 26 14 - - SSE
19.10.2017 00:00:00 6,1 6,1 28 15 - - SE
18.10.2017 23:00:00 5,9 5,9 29 16 - - SE
18.10.2017 22:00:00 5,8 5,8 34 18 - - SSE
18.10.2017 21:00:00 5,4 5,4 34 18 - - SE
18.10.2017 20:00:00 5,4 5,4 34 18 - - SE
18.10.2017 19:00:00 5,2 5,2 29 16 - - SE
18.10.2017 18:00:00 4,7 4,7 29 16 - - SE
18.10.2017 17:00:00 4,5 4,5 28 15 - - SE
18.10.2017 16:00:00 4,7 4,7 24 13 - - E
18.10.2017 15:00:00 4,6 4,6 28 15 - - ESE
18.10.2017 14:00:00 4,6 4,6 29 16 - - E
18.10.2017 13:00:00 4,8 4,8 26 14 - - E
18.10.2017 12:00:00 5,0 5,0 16 9 - - E
18.10.2017 11:00:00 4,4 4,4 11 6 - - E
18.10.2017 10:00:00 4,3 4,3 11 6 - - E
18.10.2017 09:00:00 5,5 5,5 5 3 - - SSW
18.10.2017 08:00:00 5,0 5,0 9 5 - - S
18.10.2017 07:00:00 5,0 5,0 5 3 - - S
18.10.2017 06:00:00 4,8 4,8 4 2 - - SSW
18.10.2017 05:00:00 4,6 4,6 4 2 - - S
18.10.2017 04:00:00 4,4 4,4 2 1 - - SSE
18.10.2017 03:00:00 4,6 4,6 8 4 - - WNW
18.10.2017 02:00:00 4,8 4,8 15 8 - - W
18.10.2017 01:00:00 4,9 4,9 24 13 - - W
18.10.2017 00:00:00 5,0 5,0 26 14 - - W
17.10.2017 23:00:00 5,3 5,3 29 16 46 25 W
17.10.2017 22:00:00 5,5 5,5 41 22 - - WSW
17.10.2017 21:00:00 5,6 5,6 44 24 67 36 W
17.10.2017 20:00:00 5,6 5,6 46 25 57 31 W
17.10.2017 19:00:00 5,6 5,6 37 20 54 29 WSW
17.10.2017 18:00:00 5,8 5,8 52 28 68 37 WSW
17.10.2017 17:00:00 5,8 5,8 61 33 76 41 W
17.10.2017 16:00:00 5,8 5,8 72 39 89 48 W
17.10.2017 15:00:00 5,6 5,6 80 43 106 57 W
17.10.2017 14:00:00 5,5 5,5 80 43 104 56 WSW
17.10.2017 13:00:00 5,3 5,3 89 48 102 55 WSW
17.10.2017 12:00:00 5,0 5,0 74 40 87 47 WSW
17.10.2017 11:00:00 4,9 4,9 74 40 89 48 WSW
17.10.2017 10:00:00 4,8 4,8 67 36 98 53 WSW
17.10.2017 09:00:00 4,7 4,7 78 42 98 53 WSW
17.10.2017 08:00:00 4,8 4,8 83 45 98 53 WSW
17.10.2017 07:00:00 4,8 4,8 81 44 102 55 WSW
17.10.2017 06:00:00 5,0 5,0 80 43 107 58 WSW
17.10.2017 05:00:00 5,0 5,0 83 45 115 62 WSW
17.10.2017 04:00:00 5,5 5,5 91 49 135 73 WSW
17.10.2017 03:00:00 6,2 6,2 115 62 143 77 SW
17.10.2017 02:00:00 6,4 6,4 115 62 144 78 SW
17.10.2017 01:00:00 6,7 6,7 120 65 144 78 SW
17.10.2017 00:00:00 6,6 6,6 126 68 159 86 SW
16.10.2017 23:00:00 6,4 6,4 120 65 146 79 SW
16.10.2017 22:00:00 6,4 6,4 119 64 146 79 SW
16.10.2017 21:00:00 6,3 6,3 119 64 148 80 SW
16.10.2017 20:00:00 7,7 5,8 106 57 131 71 SSW
16.10.2017 19:00:00 8,3 6,1 91 49 131 71 SSW
16.10.2017 18:00:00 9,6 6,2 87 47 111 60 SW
16.10.2017 17:00:00 11,4 10,2 70 38 113 61 SSW
16.10.2017 16:00:00 12,4 12,0 72 39 98 53 SSW
16.10.2017 15:00:00 12,4 12,4 74 40 94 51 S
16.10.2017 14:00:00 12,3 12,3 70 38 87 47 S
16.10.2017 13:00:00 10,3 10,3 48 26 67 36 SSE
16.10.2017 12:00:00 10,1 10,1 42 23 54 29 SE
16.10.2017 11:00:00 11,8 11,7 29 16 - - SE
16.10.2017 10:00:00 12,0 12,0 22 12 - - SSE
16.10.2017 09:00:00 11,4 11,4 24 13 46 25 S
16.10.2017 08:00:00 9,1 9,1 29 16 - - SSE
16.10.2017 07:00:00 8,8 8,8 24 13 - - SE
16.10.2017 06:00:00 9,1 9,1 13 7 - - SE
16.10.2017 05:00:00 9,1 9,1 21 11 - - SSW
16.10.2017 04:00:00 9,0 9,0 28 15 - - SSW
16.10.2017 03:00:00 9,0 9,0 29 16 - - SSW
16.10.2017 02:00:00 8,8 8,8 29 16 - - SSW
16.10.2017 01:00:00 8,7 8,7 39 21 - - SSW
16.10.2017 00:00:00 8,7 8,7 35 19 48 26 SW
15.10.2017 23:00:00 8,8 8,8 39 21 50 27 SW
15.10.2017 22:00:00 8,9 8,9 46 25 63 34 SW
15.10.2017 21:00:00 9,0 9,0 52 28 72 39 SW
15.10.2017 20:00:00 9,1 9,1 63 34 81 44 SW
15.10.2017 19:00:00 9,3 9,3 67 36 81 44 SW
15.10.2017 18:00:00 9,3 9,3 70 38 87 47 SW
15.10.2017 17:00:00 9,4 9,4 78 42 - - WSW
15.10.2017 16:00:00 9,3 9,3 67 36 80 43 SW
15.10.2017 15:00:00 9,1 9,1 61 33 74 40 SW
15.10.2017 14:00:00 8,9 8,9 65 35 94 51 SW
15.10.2017 13:00:00 8,6 8,6 87 47 100 54 SW
15.10.2017 12:00:00 8,9 8,9 78 42 91 49 SW
15.10.2017 11:00:00 9,1 9,1 70 38 85 46 SW
15.10.2017 10:00:00 9,1 9,1 57 31 83 45 SW
15.10.2017 09:00:00 8,9 8,9 63 34 85 46 SW
15.10.2017 08:00:00 8,8 8,8 63 34 78 42 SW
15.10.2017 07:00:00 8,7 8,7 59 32 74 40 SW
15.10.2017 06:00:00 8,8 8,8 48 26 76 41 SW
15.10.2017 05:00:00 8,8 8,8 57 31 80 43 SW
15.10.2017 04:00:00 8,9 8,9 57 31 74 40 SW
15.10.2017 03:00:00 9,0 9,0 57 31 70 38 SSW
15.10.2017 02:00:00 9,0 9,0 48 26 68 37 SW
15.10.2017 01:00:00 9,2 9,2 50 27 70 38 SSW
15.10.2017 00:00:00 9,6 9,6 55 30 70 38 SSW
14.10.2017 23:00:00 9,6 9,6 48 26 67 36 SSW
14.10.2017 22:00:00 9,4 9,4 46 25 55 30 SSW

tt = temperature
td = dewpoint
ff = wind speed
fx = gusts
dd = wind direction

Next stations